createdAt,value
2018-02-12T00:01:55.635Z,44.60
2018-02-12T00:04:23.880Z,28.60
2018-02-12T00:06:52.160Z,24.57
2018-02-12T00:09:20.507Z,24.40
2018-02-12T00:11:48.765Z,33.63
2018-02-12T00:14:17.104Z,24.57
2018-02-12T00:16:45.416Z,24.30
2018-02-12T00:19:13.723Z,40.17
2018-02-12T00:21:42.037Z,42.83
2018-02-12T00:24:10.326Z,45.30
2018-02-12T00:26:39.448Z,43.33
2018-02-12T00:29:07.692Z,37.43
2018-02-12T00:31:36.770Z,35.60
2018-02-12T00:34:05.012Z,42.77
2018-02-12T00:36:33.317Z,42.53
2018-02-12T00:39:01.606Z,36.50
2018-02-12T00:41:29.888Z,38.43
2018-02-12T00:43:58.138Z,35.17
2018-02-12T00:46:26.442Z,32.50
2018-02-12T00:48:54.715Z,39.00
2018-02-12T00:51:23.810Z,22.50
2018-02-12T00:53:52.175Z,22.60
2018-02-12T00:56:20.508Z,24.43
2018-02-12T00:58:48.978Z,25.93
2018-02-12T01:01:17.316Z,30.77
2018-02-12T01:03:45.643Z,31.03
2018-02-12T01:06:13.904Z,22.90
2018-02-12T01:08:42.215Z,21.30
2018-02-12T01:11:11.315Z,23.73
2018-02-12T01:13:39.584Z,33.70
2018-02-12T01:16:07.890Z,22.20
2018-02-12T01:18:36.264Z,21.57
2018-02-12T01:21:04.649Z,22.67
2018-02-12T01:23:33.026Z,24.37
2018-02-12T01:26:02.119Z,22.70
2018-02-12T01:28:30.479Z,28.50
2018-02-12T01:30:58.797Z,25.13
2018-02-12T01:33:27.140Z,23.30
2018-02-12T01:35:55.398Z,25.37
2018-02-12T01:38:23.714Z,25.70
2018-02-12T01:40:52.822Z,22.83
2018-02-12T01:43:21.248Z,33.97
2018-02-12T01:45:49.604Z,21.77
2018-02-12T01:48:17.888Z,24.60
2018-02-12T01:50:46.193Z,31.10
2018-02-12T01:53:14.562Z,22.17
2018-02-12T01:55:42.845Z,22.17
2018-02-12T01:58:11.118Z,22.00
2018-02-12T02:00:39.622Z,23.13
2018-02-12T02:03:08.667Z,19.60
2018-02-12T02:05:36.903Z,22.87
2018-02-12T02:08:05.994Z,21.77
2018-02-12T02:10:34.258Z,21.60
2018-02-12T02:13:02.542Z,22.07
2018-02-12T02:15:30.834Z,33.70
2018-02-12T02:17:59.180Z,20.27
2018-02-12T02:20:27.412Z,22.90
2018-02-12T02:22:55.713Z,31.90
2018-02-12T02:25:24.016Z,28.27
2018-02-12T02:27:52.268Z,35.13
2018-02-12T02:30:20.572Z,40.33
2018-02-12T02:32:48.859Z,32.33
2018-02-12T02:35:17.116Z,34.43
2018-02-12T02:37:45.448Z,35.00
2018-02-12T02:40:13.751Z,29.60
2018-02-12T02:42:42.026Z,33.47
2018-02-12T02:45:11.144Z,27.97
2018-02-12T02:47:39.418Z,30.40
2018-02-12T02:50:07.651Z,28.63
2018-02-12T02:52:35.941Z,24.00
2018-02-12T02:55:04.225Z,24.47
2018-02-12T02:57:32.481Z,24.40
2018-02-12T03:00:00.819Z,23.00
2018-02-12T03:02:29.354Z,23.50
2018-02-12T03:04:57.684Z,20.03
2018-02-12T03:07:26.017Z,23.23
2018-02-12T03:09:54.326Z,21.27
2018-02-12T03:12:22.689Z,21.03
2018-02-12T03:14:51.059Z,19.23
2018-02-12T03:17:19.374Z,20.40
2018-02-12T03:19:47.623Z,19.20
2018-02-12T03:22:17.611Z,17.83
2018-02-12T03:24:45.878Z,16.07
2018-02-12T03:27:14.171Z,18.93
2018-02-12T03:29:43.421Z,18.63
2018-02-12T03:32:11.686Z,16.33
2018-02-12T03:34:39.982Z,19.20
2018-02-12T03:37:09.143Z,15.20
2018-02-12T03:39:37.414Z,17.60
2018-02-12T03:42:05.714Z,16.03
2018-02-12T03:44:34.021Z,16.50
2018-02-12T03:47:02.303Z,17.13
2018-02-12T03:49:30.584Z,17.43
2018-02-12T03:51:58.898Z,16.87
2018-02-12T03:54:27.934Z,16.37
2018-02-12T03:56:56.258Z,17.20
2018-02-12T03:59:24.551Z,17.97
2018-02-12T04:01:52.844Z,16.63
2018-02-12T04:04:21.403Z,16.23
2018-02-12T04:06:49.679Z,16.27
2018-02-12T04:09:18.746Z,16.30
2018-02-12T04:11:47.756Z,16.23
2018-02-12T04:14:16.045Z,16.10
2018-02-12T04:16:44.346Z,16.70
2018-02-12T04:19:12.672Z,16.17
2018-02-12T04:21:40.948Z,18.73
2018-02-12T04:24:09.212Z,15.17
2018-02-12T04:26:37.490Z,19.07
2018-02-12T04:29:05.946Z,15.60
2018-02-12T04:31:34.228Z,17.30
2018-02-12T04:34:02.518Z,17.50
2018-02-12T04:36:30.859Z,18.20
2018-02-12T04:38:59.115Z,19.60
2018-02-12T04:41:28.148Z,20.77
2018-02-12T04:43:56.454Z,21.53
2018-02-12T04:46:27.106Z,24.13
2018-02-12T04:48:55.371Z,14.50
2018-02-12T04:51:23.682Z,23.73
2018-02-12T04:53:51.973Z,18.23
2018-02-12T04:56:20.216Z,13.00
2018-02-12T04:58:49.340Z,17.23
2018-02-12T05:01:17.637Z,14.93
2018-02-12T05:03:45.924Z,17.47
2018-02-12T05:06:14.255Z,17.77
2018-02-12T05:08:43.327Z,20.53
2018-02-12T05:11:11.626Z,20.90
2018-02-12T05:13:40.683Z,21.30
2018-02-12T05:16:09.030Z,22.03
2018-02-12T05:18:37.375Z,22.20
2018-02-12T05:21:05.781Z,20.93
2018-02-12T05:23:34.051Z,20.83
2018-02-12T05:26:02.352Z,25.40
2018-02-12T05:28:30.682Z,29.47
2018-02-12T05:30:59.693Z,25.40
2018-02-12T05:33:27.999Z,29.50
2018-02-12T05:35:56.353Z,21.33
2018-02-12T05:38:24.605Z,27.70
2018-02-12T05:40:53.751Z,33.53
2018-02-12T05:43:22.056Z,26.13
2018-02-12T05:45:50.273Z,31.97
2018-02-12T05:48:18.588Z,24.40
2018-02-12T05:50:46.939Z,25.50
2018-02-12T05:53:15.208Z,26.30
2018-02-12T05:55:43.506Z,29.70
2018-02-12T05:58:11.829Z,24.23
2018-02-12T06:00:40.850Z,27.43
2018-02-12T06:03:09.151Z,25.20
2018-02-12T06:05:37.433Z,18.97
2018-02-12T06:08:05.685Z,10.80
2018-02-12T06:10:33.966Z,13.00
2018-02-12T06:13:02.262Z,10.03
2018-02-12T06:15:30.523Z,12.50
2018-02-12T06:17:58.774Z,15.70
2018-02-12T06:20:27.073Z,15.47
2018-02-12T06:22:56.130Z,13.87
2018-02-12T06:25:25.143Z,10.90
2018-02-12T06:27:53.449Z,10.90
2018-02-12T06:30:21.774Z,19.73
2018-02-12T06:32:50.789Z,11.70
2018-02-12T06:35:19.171Z,13.40
2018-02-12T06:37:47.413Z,20.33
2018-02-12T06:40:16.413Z,11.87
2018-02-12T06:42:44.843Z,23.07
2018-02-12T06:45:13.099Z,22.47
2018-02-12T06:47:41.368Z,23.60
2018-02-12T06:50:09.639Z,25.23
2018-02-12T06:52:38.662Z,25.80
2018-02-12T06:55:06.898Z,25.70
2018-02-12T06:57:35.306Z,26.30
2018-02-12T07:00:03.532Z,29.60
2018-02-12T07:02:32.574Z,15.33
2018-02-12T07:05:00.858Z,20.43
2018-02-12T07:07:29.120Z,17.30
2018-02-12T07:09:57.387Z,11.77
2018-02-12T07:12:25.808Z,10.00
2018-02-12T07:14:54.042Z,12.60
2018-02-12T07:17:22.289Z,18.47
2018-02-12T07:19:50.588Z,10.93
2018-02-12T07:22:18.880Z,11.70
2018-02-12T07:24:47.160Z,11.00
2018-02-12T07:27:15.548Z,10.40
2018-02-12T07:29:43.873Z,15.20
2018-02-12T07:32:12.149Z,12.90
2018-02-12T07:34:40.565Z,21.73
2018-02-12T07:37:08.871Z,15.37
2018-02-12T07:39:37.101Z,22.10
2018-02-12T07:42:05.449Z,10.77
2018-02-12T07:44:33.714Z,20.90
2018-02-12T07:47:01.978Z,20.70
2018-02-12T07:49:30.362Z,17.03
2018-02-12T07:51:58.747Z,17.40
2018-02-12T07:54:27.090Z,13.53
2018-02-12T07:56:55.446Z,11.63
2018-02-12T07:59:23.718Z,10.30
2018-02-12T08:01:52.032Z,18.63
2018-02-12T08:04:20.899Z,14.20
2018-02-12T08:06:49.229Z,17.60
2018-02-12T08:09:18.280Z,18.63
2018-02-12T08:11:46.649Z,10.97
2018-02-12T08:14:15.141Z,10.30
2018-02-12T08:16:43.527Z,19.50
2018-02-12T08:19:11.920Z,13.30
2018-02-12T08:21:40.293Z,14.07
2018-02-12T08:24:08.554Z,14.50
2018-02-12T08:26:36.878Z,16.23
2018-02-12T08:29:06.253Z,14.40
2018-02-12T08:31:34.689Z,10.50
2018-02-12T08:34:03.116Z,11.83
2018-02-12T08:36:32.297Z,15.70
2018-02-12T08:39:01.485Z,15.53
2018-02-12T08:41:29.834Z,12.83
2018-02-12T08:43:58.128Z,13.63
2018-02-12T08:46:26.597Z,16.00
2018-02-12T08:48:54.894Z,13.70
2018-02-12T08:51:23.274Z,17.80
2018-02-12T08:53:51.597Z,25.00
2018-02-12T08:56:19.866Z,22.00
2018-02-12T08:58:48.979Z,17.33
2018-02-12T09:01:17.323Z,14.00
2018-02-12T09:03:45.624Z,12.00
2018-02-12T09:06:14.842Z,12.00
2018-02-12T09:08:43.197Z,11.50
2018-02-12T09:11:12.363Z,12.00
2018-02-12T09:13:41.012Z,9.73
2018-02-12T09:16:09.299Z,11.80
2018-02-12T09:18:37.585Z,10.40
2018-02-12T09:21:05.949Z,9.97
2018-02-12T09:23:34.258Z,10.67
2018-02-12T09:26:03.439Z,10.33
2018-02-12T09:28:32.669Z,10.30
2018-02-12T09:31:01.757Z,8.83
2018-02-12T09:33:30.846Z,9.67
2018-02-12T09:35:59.181Z,8.33
2018-02-12T09:38:27.413Z,9.47
2018-02-12T09:40:56.611Z,9.13
2018-02-12T09:43:25.722Z,8.33
2018-02-12T09:45:54.047Z,8.33
2018-02-12T09:48:22.732Z,7.67
2018-02-12T09:50:51.053Z,7.27
2018-02-12T09:53:20.243Z,7.90
2018-02-12T09:55:49.428Z,6.07
2018-02-12T09:58:17.789Z,6.83
2018-02-12T10:00:46.080Z,7.53
2018-02-12T10:03:14.438Z,8.40
2018-02-12T10:05:42.714Z,7.00
2018-02-12T10:08:11.884Z,6.37
2018-02-12T10:10:40.178Z,5.33
2018-02-12T10:13:08.663Z,6.50
2018-02-12T10:15:36.987Z,6.00
2018-02-12T10:18:05.330Z,6.63
2018-02-12T10:20:33.646Z,8.13
2018-02-12T10:23:04.010Z,7.43
2018-02-12T10:25:30.282Z,8.53
2018-02-12T10:27:59.711Z,7.20
2018-02-12T10:30:27.958Z,7.43
2018-02-12T10:32:57.049Z,6.80
2018-02-12T10:35:25.392Z,9.30
2018-02-12T10:37:53.810Z,8.50
2018-02-12T10:40:22.883Z,6.60
2018-02-12T10:42:51.213Z,7.40
2018-02-12T10:45:19.454Z,8.77
2018-02-12T10:47:47.738Z,6.33
2018-02-12T10:50:16.800Z,7.30
2018-02-12T10:52:45.128Z,6.73
2018-02-12T10:55:13.522Z,7.47
2018-02-12T10:57:41.854Z,6.37
2018-02-12T11:00:10.119Z,7.93
2018-02-12T11:02:38.427Z,6.17
2018-02-12T11:05:06.687Z,6.13
2018-02-12T11:07:35.206Z,7.47
2018-02-12T11:10:03.526Z,22.67
2018-02-12T11:12:32.650Z,9.70
2018-02-12T11:15:00.924Z,9.63
2018-02-12T11:17:30.340Z,11.63
2018-02-12T11:19:59.515Z,8.17
2018-02-12T11:22:27.794Z,7.33
2018-02-12T11:24:56.885Z,6.67
2018-02-12T11:27:25.138Z,7.00
2018-02-12T11:29:54.187Z,7.30
2018-02-12T11:32:22.543Z,7.60
2018-02-12T11:34:51.201Z,7.43
2018-02-12T11:37:19.425Z,8.40
2018-02-12T11:39:47.778Z,7.30
2018-02-12T11:42:16.501Z,7.57
2018-02-12T11:44:44.732Z,6.10
2018-02-12T11:47:13.939Z,7.70
2018-02-12T11:49:42.245Z,7.13
2018-02-12T11:52:10.714Z,6.40
2018-02-12T11:54:39.061Z,8.50
2018-02-12T11:57:07.274Z,5.57
2018-02-12T11:59:35.545Z,7.03
2018-02-12T12:02:04.649Z,6.80
2018-02-12T12:04:32.888Z,7.20
2018-02-12T12:07:01.203Z,6.00
2018-02-12T12:09:29.520Z,6.20
2018-02-12T12:11:57.946Z,7.50
2018-02-12T12:14:26.195Z,7.90
2018-02-12T12:16:55.330Z,6.60
2018-02-12T12:19:23.708Z,5.60
2018-02-12T12:21:52.113Z,6.93
2018-02-12T12:24:20.485Z,7.27
2018-02-12T12:26:48.774Z,6.67
2018-02-12T12:29:17.058Z,6.43
2018-02-12T12:31:45.475Z,7.20
2018-02-12T12:34:13.851Z,5.80
2018-02-12T12:36:43.090Z,5.50
2018-02-12T12:39:11.468Z,5.63
2018-02-12T12:41:40.057Z,7.23
2018-02-12T12:44:08.323Z,5.07
2018-02-12T12:46:36.587Z,6.17
2018-02-12T12:49:05.146Z,6.73
2018-02-12T12:51:34.356Z,5.73
2018-02-12T12:54:02.688Z,6.37
2018-02-12T12:56:30.988Z,6.50
2018-02-12T12:58:59.242Z,5.20
2018-02-12T13:01:28.433Z,4.73
2018-02-12T13:03:56.734Z,5.40
2018-02-12T13:06:25.792Z,4.70
2018-02-12T13:08:54.419Z,6.37
2018-02-12T13:11:23.413Z,5.03
2018-02-12T13:13:52.500Z,4.67
2018-02-12T13:16:21.573Z,5.13
2018-02-12T13:18:49.871Z,5.90
2018-02-12T13:21:18.974Z,5.87
2018-02-12T13:23:47.322Z,6.60
2018-02-12T13:26:15.569Z,6.37
2018-02-12T13:28:43.829Z,5.60
2018-02-12T13:31:12.237Z,6.63
2018-02-12T13:33:40.487Z,6.40
2018-02-12T13:36:08.765Z,6.97
2018-02-12T13:38:37.071Z,7.00
2018-02-12T13:41:05.339Z,7.57
2018-02-12T13:43:33.571Z,7.10
2018-02-12T13:46:01.907Z,7.40
2018-02-12T13:48:30.189Z,5.67
2018-02-12T13:50:58.430Z,9.60
2018-02-12T13:53:26.853Z,14.17
2018-02-12T13:55:55.890Z,11.57
2018-02-12T13:58:24.182Z,10.93
2018-02-12T14:00:52.463Z,11.47
2018-02-12T14:03:20.703Z,9.87
2018-02-12T14:05:48.965Z,9.57
2018-02-12T14:08:17.314Z,10.27
2018-02-12T14:10:45.593Z,9.80
2018-02-12T14:13:14.643Z,10.10
2018-02-12T14:15:42.930Z,10.00
2018-02-12T14:18:11.213Z,10.73
2018-02-12T14:20:39.514Z,9.37
2018-02-12T14:23:07.920Z,13.40
2018-02-12T14:25:36.194Z,10.30
2018-02-12T14:28:05.201Z,9.80
2018-02-12T14:30:33.533Z,10.70
2018-02-12T14:33:01.782Z,12.67
2018-02-12T14:35:30.020Z,10.70
2018-02-12T14:37:58.357Z,11.80
2018-02-12T14:40:26.596Z,10.50
2018-02-12T14:42:54.836Z,10.07
2018-02-12T14:45:23.162Z,9.30
2018-02-12T14:47:51.398Z,9.77
2018-02-12T14:50:19.659Z,7.40
2018-02-12T14:52:47.980Z,7.03
2018-02-12T14:55:16.215Z,7.40
2018-02-12T14:57:45.270Z,8.57
2018-02-12T15:00:13.581Z,8.93
2018-02-12T15:02:41.854Z,7.57
2018-02-12T15:05:10.856Z,7.20
2018-02-12T15:07:39.917Z,6.30
2018-02-12T15:10:08.144Z,7.73
2018-02-12T15:12:36.420Z,6.90
2018-02-12T15:15:04.713Z,8.30
2018-02-12T15:17:32.945Z,8.60
2018-02-12T15:20:01.192Z,6.30
2018-02-12T15:22:29.480Z,6.50
2018-02-12T15:24:57.720Z,6.87
2018-02-12T15:27:25.964Z,7.37
2018-02-12T15:29:54.278Z,10.00
2018-02-12T15:32:22.549Z,10.60
2018-02-12T15:34:51.648Z,7.17
2018-02-12T15:37:19.915Z,6.33
2018-02-12T15:39:48.143Z,14.07
2018-02-12T15:42:17.154Z,12.93
2018-02-12T15:44:45.453Z,8.20
2018-02-12T15:47:13.696Z,10.30
2018-02-12T15:49:41.940Z,8.50
2018-02-12T15:52:10.216Z,15.20
2018-02-12T15:54:38.469Z,13.73
2018-02-12T15:57:06.690Z,16.60
2018-02-12T15:59:35.761Z,15.77
2018-02-12T16:02:03.980Z,14.30
2018-02-12T16:04:32.208Z,14.10
2018-02-12T16:07:00.631Z,16.47
2018-02-12T16:09:28.881Z,20.50
2018-02-12T16:11:57.924Z,40.40
2018-02-12T16:14:26.233Z,29.00
2018-02-12T16:16:54.460Z,39.90
2018-02-12T16:19:22.985Z,34.10
2018-02-12T16:21:51.279Z,22.17
2018-02-12T16:24:19.570Z,11.63
2018-02-12T16:26:47.873Z,17.90
2018-02-12T16:29:16.223Z,10.20
2018-02-12T16:31:44.495Z,7.33
2018-02-12T16:34:13.572Z,15.07
2018-02-12T16:36:42.617Z,9.33
2018-02-12T16:39:10.979Z,15.13
2018-02-12T16:41:39.312Z,14.20
2018-02-12T16:44:07.678Z,7.93
2018-02-12T16:46:36.004Z,9.40
2018-02-12T16:49:05.048Z,9.63
2018-02-12T16:51:34.649Z,9.13
2018-02-12T16:54:09.812Z,9.17
2018-02-12T16:56:39.543Z,11.97
2018-02-12T16:59:08.473Z,12.73
2018-02-12T17:01:37.929Z,9.17
2018-02-12T17:04:06.903Z,9.47
2018-02-12T17:06:35.480Z,10.83
2018-02-12T17:09:05.472Z,9.23
2018-02-12T17:11:35.896Z,25.27
2018-02-12T17:14:06.530Z,20.20
2018-02-12T17:16:37.894Z,18.67
2018-02-12T17:19:08.733Z,10.47
2018-02-12T17:21:39.643Z,12.13
2018-02-12T17:24:08.553Z,9.80
2018-02-12T17:26:38.750Z,13.30
2018-02-12T17:29:08.705Z,10.10
2018-02-12T17:31:40.633Z,10.90
2018-02-12T17:34:09.439Z,11.30
2018-02-12T17:36:37.675Z,10.90
2018-02-12T17:39:06.714Z,17.93
2018-02-12T17:41:35.087Z,52.37
2018-02-12T17:44:03.385Z,13.10
2018-02-12T17:46:31.679Z,69.77
2018-02-12T17:49:00.149Z,14.33
2018-02-12T17:51:29.187Z,22.83
2018-02-12T17:53:57.424Z,37.00
2018-02-12T17:56:26.492Z,67.60
2018-02-12T17:58:54.925Z,20.50
2018-02-12T18:01:23.284Z,66.00
2018-02-12T18:03:52.304Z,67.53
2018-02-12T18:06:20.608Z,65.20
2018-02-12T18:08:49.501Z,43.10
2018-02-12T18:11:17.842Z,33.07
2018-02-12T18:13:46.201Z,35.50
2018-02-12T18:16:15.254Z,21.50
2018-02-12T18:18:43.544Z,39.83
2018-02-12T18:21:11.823Z,45.90
2018-02-12T18:23:40.160Z,46.17
2018-02-12T18:26:09.246Z,42.23
2018-02-12T18:28:37.544Z,28.87
2018-02-12T18:31:05.781Z,39.07
2018-02-12T18:33:34.649Z,42.50
2018-02-12T18:36:03.709Z,44.30
2018-02-12T18:38:31.990Z,51.40
2018-02-12T18:41:00.226Z,48.00
2018-02-12T18:43:28.478Z,39.60
2018-02-12T18:45:58.322Z,45.63
2018-02-12T18:48:26.557Z,24.47
2018-02-12T18:50:55.558Z,22.40
2018-02-12T18:53:24.578Z,34.20
2018-02-12T18:55:52.948Z,30.23
2018-02-12T18:58:21.201Z,35.27
2018-02-12T19:00:49.499Z,50.10
2018-02-12T19:03:17.781Z,44.87
2018-02-12T19:05:46.015Z,32.57
2018-02-12T19:08:14.247Z,58.60
2018-02-12T19:10:43.330Z,65.33
2018-02-12T19:13:11.637Z,71.53
2018-02-12T19:15:39.964Z,69.50
2018-02-12T19:18:08.311Z,48.33
2018-02-12T19:20:36.968Z,45.70
2018-02-12T19:23:05.216Z,30.03
2018-02-12T19:25:33.730Z,54.97
2018-02-12T19:28:01.982Z,34.40
2018-02-12T19:30:30.232Z,40.50
2018-02-12T19:32:58.562Z,41.40
2018-02-12T19:35:26.867Z,51.33
2018-02-12T19:37:55.159Z,104.00
2018-02-12T19:40:24.171Z,106.87
2018-02-12T19:42:52.558Z,104.00
2018-02-12T19:45:20.817Z,97.43
2018-02-12T19:47:49.152Z,65.20
2018-02-12T19:50:17.453Z,85.73
2018-02-12T19:52:46.464Z,56.40
2018-02-12T19:55:14.907Z,47.27
2018-02-12T19:57:43.207Z,79.73
2018-02-12T20:00:12.244Z,68.10
2018-02-12T20:02:40.573Z,54.03
2018-02-12T20:05:08.848Z,51.57
2018-02-12T20:07:37.126Z,69.40
2018-02-12T20:10:05.477Z,69.47
2018-02-12T20:12:35.084Z,40.97
2018-02-12T20:15:03.338Z,53.37
2018-02-12T20:17:31.671Z,59.10
2018-02-12T20:19:59.909Z,77.37
2018-02-12T20:22:28.138Z,72.67
2018-02-12T20:24:57.953Z,47.20
2018-02-12T20:27:26.202Z,89.20
2018-02-12T20:29:54.517Z,50.63
2018-02-12T20:32:23.503Z,100.47
2018-02-12T20:34:51.806Z,100.50
2018-02-12T20:37:20.353Z,119.13
2018-02-12T20:39:48.675Z,97.83
2018-02-12T20:42:16.926Z,108.00
2018-02-12T20:44:45.196Z,79.40
2018-02-12T20:47:13.517Z,89.80
2018-02-12T20:49:42.550Z,82.90
2018-02-12T20:52:10.797Z,86.00
2018-02-12T20:54:39.109Z,90.80
2018-02-12T20:57:07.374Z,110.03
2018-02-12T20:59:35.630Z,87.67
2018-02-12T21:02:04.697Z,97.30
2018-02-12T21:04:32.958Z,96.63
2018-02-12T21:07:01.214Z,52.90
2018-02-12T21:09:29.531Z,50.60
2018-02-12T21:11:57.817Z,59.77
2018-02-12T21:14:26.803Z,82.43
2018-02-12T21:16:55.879Z,81.90
2018-02-12T21:19:24.103Z,67.30
2018-02-12T21:21:52.376Z,61.73
2018-02-12T21:24:20.704Z,61.80
2018-02-12T21:26:48.940Z,78.07
2018-02-12T21:29:17.189Z,84.43
2018-02-12T21:31:46.293Z,95.60
2018-02-12T21:34:14.535Z,79.73
2018-02-12T21:36:44.324Z,60.60
2018-02-12T21:39:12.704Z,50.50
2018-02-12T21:41:40.944Z,65.27
2018-02-12T21:44:09.229Z,66.77
2018-02-12T21:46:37.547Z,61.67
2018-02-12T21:49:05.807Z,53.27
2018-02-12T21:51:34.070Z,50.27
2018-02-12T21:54:02.353Z,57.97
2018-02-12T21:56:30.614Z,46.03
2018-02-12T21:58:58.868Z,39.40
2018-02-12T22:01:27.169Z,42.00
2018-02-12T22:03:55.478Z,43.57
2018-02-12T22:06:24.498Z,33.53
2018-02-12T22:08:52.857Z,34.87
2018-02-12T22:11:21.875Z,59.90
2018-02-12T22:13:50.885Z,55.20
2018-02-12T22:16:19.243Z,50.97
2018-02-12T22:18:47.561Z,48.47
2018-02-12T22:21:15.805Z,51.67
2018-02-12T22:23:44.856Z,43.30
2018-02-12T22:26:13.096Z,39.93
2018-02-12T22:28:41.350Z,47.20
2018-02-12T22:31:09.662Z,38.00
2018-02-12T22:33:37.915Z,37.90
2018-02-12T22:36:06.173Z,41.60
2018-02-12T22:38:34.450Z,37.03
2018-02-12T22:41:02.941Z,38.73
2018-02-12T22:43:31.228Z,38.40
2018-02-12T22:45:59.498Z,38.90
2018-02-12T22:48:27.725Z,37.47
2018-02-12T22:50:55.966Z,35.80
2018-02-12T22:53:24.258Z,34.60
2018-02-12T22:55:52.500Z,31.67
2018-02-12T22:58:21.785Z,33.00
2018-02-12T23:00:50.069Z,34.70
2018-02-12T23:03:18.343Z,31.20
2018-02-12T23:05:46.780Z,31.60
2018-02-12T23:08:15.043Z,31.73
2018-02-12T23:10:44.322Z,38.23
2018-02-12T23:13:12.554Z,37.10
2018-02-12T23:15:40.827Z,36.70
2018-02-12T23:18:10.097Z,36.07
2018-02-12T23:20:38.408Z,35.60
2018-02-12T23:23:06.734Z,32.97
2018-02-12T23:25:35.005Z,34.20
2018-02-12T23:28:03.295Z,35.13
2018-02-12T23:30:31.576Z,34.70
2018-02-12T23:32:59.817Z,34.40
2018-02-12T23:35:28.062Z,31.77
2018-02-12T23:37:57.105Z,28.67
2018-02-12T23:40:25.464Z,31.63
2018-02-12T23:42:53.817Z,32.70
2018-02-12T23:45:22.120Z,31.73
2018-02-12T23:47:50.359Z,35.73
2018-02-12T23:50:19.455Z,31.23
2018-02-12T23:52:47.755Z,27.87
2018-02-12T23:55:16.216Z,33.80
2018-02-12T23:57:45.197Z,34.30
